Time;durP1;ratioP1;P1;durP2;ratioP2;P2;SDS_P1;SDS_P2;PMS_P1;PMS_P2;Temp;Humidity;BMP_temperature;BMP_pressure;BME280_temperature;BME280_humidity;BME280_pressure;Samples;Min_cycle;Max_cycle;Signal;HPM_P1;HPM_P2
2023/05/07 00:01:41;;;;;;;11.00;9.82;;;13.80;99.90;;;;;;5017690;28;20301;-73
2023/05/07 00:04:07;;;;;;;10.55;9.48;;;13.80;99.90;;;;;;5019736;28;20042;-73
2023/05/07 00:06:33;;;;;;;10.63;9.50;;;13.80;99.90;;;;;;5031383;28;20317;-73
2023/05/07 00:08:59;;;;;;;10.65;9.55;;;13.80;99.90;;;;;;5016651;28;20042;-73
2023/05/07 00:11:25;;;;;;;11.25;9.63;;;13.70;99.90;;;;;;5033449;28;20322;-73
2023/05/07 00:13:51;;;;;;;11.93;10.05;;;13.80;99.90;;;;;;5033106;28;20145;-73
2023/05/07 00:16:17;;;;;;;11.73;10.27;;;13.70;99.90;;;;;;5016218;28;20046;-73
2023/05/07 00:18:43;;;;;;;10.98;9.88;;;13.70;99.90;;;;;;5014282;28;20042;-73
2023/05/07 00:21:09;;;;;;;11.57;9.70;;;13.70;99.90;;;;;;5031838;28;20068;-73
2023/05/07 00:23:34;;;;;;;10.55;9.45;;;13.70;99.90;;;;;;5031354;28;20058;-73
2023/05/07 00:26:00;;;;;;;10.73;9.40;;;13.70;99.90;;;;;;5016135;28;20042;-73
2023/05/07 00:28:26;;;;;;;12.07;10.00;;;13.60;99.90;;;;;;5030527;28;20037;-71
2023/05/07 00:30:52;;;;;;;13.40;9.68;;;13.70;99.90;;;;;;5015005;28;20508;-71
2023/05/07 00:33:18;;;;;;;11.52;9.73;;;13.70;99.90;;;;;;4998054;28;20054;-71
2023/05/07 00:35:43;;;;;;;13.20;10.02;;;13.60;99.90;;;;;;5013188;28;20044;-71
2023/05/07 00:38:09;;;;;;;12.13;10.88;;;13.60;99.90;;;;;;5014946;28;20125;-72
2023/05/07 00:40:35;;;;;;;13.27;10.52;;;13.60;99.90;;;;;;5011155;28;20168;-73
2023/05/07 00:43:00;;;;;;;11.68;9.95;;;13.60;99.90;;;;;;5015789;28;20038;-72
2023/05/07 00:45:27;;;;;;;13.88;11.25;;;13.60;99.90;;;;;;5032121;28;20103;-72
2023/05/07 00:47:58;;;;;;;13.52;11.32;;;13.60;99.90;;;;;;5013661;28;20078;-72
2023/05/07 00:50:24;;;;;;;14.02;11.65;;;13.60;99.90;;;;;;5012041;28;20045;-72
2023/05/07 00:52:49;;;;;;;13.73;12.02;;;13.60;99.90;;;;;;5014202;28;20049;-72
2023/05/07 00:55:15;;;;;;;13.85;12.15;;;13.50;99.90;;;;;;5014053;28;20066;-72
2023/05/07 00:57:41;;;;;;;15.20;12.40;;;13.50;99.90;;;;;;5013283;28;20405;-72
2023/05/07 01:00:09;;;;;;;16.73;13.18;;;13.50;99.90;;;;;;5014479;28;20173;-72
2023/05/07 01:02:36;;;;;;;15.02;13.43;;;13.50;99.90;;;;;;5008644;28;20188;-69
2023/05/07 01:05:04;;;;;;;16.15;14.13;;;13.40;99.90;;;;;;5009745;28;20045;-69
2023/05/07 01:07:30;;;;;;;17.77;15.20;;;13.40;99.90;;;;;;5008761;28;20038;-69
2023/05/07 01:09:57;;;;;;;19.20;15.13;;;13.40;99.90;;;;;;4992434;28;20052;-70
2023/05/07 01:12:24;;;;;;;18.17;15.15;;;13.30;99.90;;;;;;5008438;28;20115;-70
2023/05/07 01:14:50;;;;;;;16.35;14.55;;;13.30;99.90;;;;;;5008293;28;20128;-70
2023/05/07 01:17:16;;;;;;;18.65;15.52;;;13.30;99.90;;;;;;5007890;28;20148;-70
2023/05/07 01:19:42;;;;;;;18.67;16.55;;;13.20;99.90;;;;;;5008834;28;20030;-69
2023/05/07 01:22:14;;;;;;;18.70;16.80;;;13.20;99.90;;;;;;5008691;28;20046;-69
2023/05/07 01:24:41;;;;;;;20.45;17.40;;;13.20;99.90;;;;;;5008904;28;20038;-70
2023/05/07 01:27:06;;;;;;;19.85;17.80;;;13.10;99.90;;;;;;5005881;28;20048;-69
2023/05/07 01:29:32;;;;;;;20.45;18.17;;;13.00;99.90;;;;;;5009275;28;20038;-69
2023/05/07 01:31:59;;;;;;;20.77;18.67;;;12.90;99.90;;;;;;5007755;28;20054;-69
2023/05/07 01:34:28;;;;;;;22.95;19.70;;;12.80;99.90;;;;;;5004962;28;20049;-69
2023/05/07 01:36:57;;;;;;;25.23;20.42;;;12.80;99.90;;;;;;5008643;28;20790;-69
2023/05/07 01:39:28;;;;;;;21.55;19.30;;;12.80;99.90;;;;;;4991339;28;20046;-69
2023/05/07 01:41:56;;;;;;;23.70;21.05;;;12.70;99.90;;;;;;5007983;28;20116;-69
2023/05/07 01:44:22;;;;;;;22.20;19.40;;;12.60;99.90;;;;;;5009221;28;20057;-69
2023/05/07 01:46:48;;;;;;;24.15;19.98;;;12.60;99.90;;;;;;5006454;28;20034;-69
2023/05/07 01:49:15;;;;;;;23.58;21.13;;;12.50;99.90;;;;;;5006924;28;20038;-70
2023/05/07 01:51:41;;;;;;;23.40;20.90;;;12.50;99.90;;;;;;5007190;28;20050;-69
2023/05/07 01:54:08;;;;;;;23.20;20.70;;;12.50;99.90;;;;;;4994078;28;20097;-69
2023/05/07 01:56:34;;;;;;;22.83;20.33;;;12.40;99.90;;;;;;5008487;28;20494;-69
2023/05/07 01:59:00;;;;;;;23.25;20.83;;;12.40;99.90;;;;;;5008745;28;20045;-69
2023/05/07 02:01:25;;;;;;;23.52;21.00;;;12.40;99.90;;;;;;5006916;28;20383;-69
2023/05/07 02:03:51;;;;;;;23.98;21.35;;;12.40;99.90;;;;;;5001082;28;20049;-69
2023/05/07 02:06:17;;;;;;;22.80;20.23;;;12.30;99.90;;;;;;5007428;28;20038;-69
2023/05/07 02:08:43;;;;;;;24.92;21.52;;;12.30;99.90;;;;;;5007649;28;20191;-69
2023/05/07 02:11:08;;;;;;;22.25;20.00;;;12.30;99.90;;;;;;5007324;28;20042;-70
2023/05/07 02:13:34;;;;;;;24.38;21.63;;;12.30;99.90;;;;;;5008327;28;20038;-69
2023/05/07 02:16:01;;;;;;;23.58;20.70;;;12.20;99.90;;;;;;4991641;28;20042;-69
2023/05/07 02:18:26;;;;;;;23.63;21.13;;;12.20;99.90;;;;;;5006021;28;20052;-68
2023/05/07 02:20:52;;;;;;;24.38;21.00;;;12.10;99.90;;;;;;5008694;28;20514;-69
2023/05/07 02:23:18;;;;;;;25.10;22.55;;;12.10;99.90;;;;;;5007762;28;20133;-68
2023/05/07 02:25:44;;;;;;;26.73;22.65;;;12.00;99.90;;;;;;5008424;28;20394;-69
2023/05/07 02:28:09;;;;;;;25.95;23.08;;;12.00;99.90;;;;;;5009610;28;20073;-69
2023/05/07 02:30:37;;;;;;;25.23;22.55;;;12.00;99.90;;;;;;5008052;28;20087;-69
2023/05/07 02:33:03;;;;;;;27.02;22.52;;;12.00;99.90;;;;;;5005145;28;20392;-69
2023/05/07 02:35:29;;;;;;;25.50;22.63;;;12.00;99.90;;;;;;5007632;28;20402;-69
2023/05/07 02:37:54;;;;;;;26.27;23.55;;;12.00;99.90;;;;;;5008148;28;20046;-69
2023/05/07 02:40:20;;;;;;;24.92;22.17;;;11.90;99.90;;;;;;5008721;28;20038;-70
2023/05/07 02:42:46;;;;;;;26.52;23.45;;;11.90;99.90;;;;;;5007925;28;20049;-69
2023/05/07 02:45:11;;;;;;;25.88;23.10;;;11.90;99.90;;;;;;5007454;28;20045;-69
2023/05/07 02:47:37;;;;;;;26.90;24.10;;;11.90;99.90;;;;;;5006549;28;20037;-69
2023/05/07 02:50:03;;;;;;;27.42;24.50;;;11.90;99.90;;;;;;4991047;28;20076;-68
2023/05/07 02:52:29;;;;;;;29.65;24.38;;;11.90;99.90;;;;;;5007457;28;20120;-70
2023/05/07 02:54:55;;;;;;;29.13;24.83;;;11.80;99.90;;;;;;5026004;28;20169;-70
2023/05/07 02:57:20;;;;;;;28.73;25.30;;;11.80;99.90;;;;;;5011384;28;20050;-69
2023/05/07 02:59:46;;;;;;;29.80;26.10;;;11.80;99.90;;;;;;5010983;28;20522;-69
2023/05/07 03:02:12;;;;;;;27.77;24.08;;;11.80;99.90;;;;;;5011512;28;20044;-69
2023/05/07 03:04:39;;;;;;;29.65;26.50;;;11.80;99.90;;;;;;5011143;28;20405;-69
2023/05/07 03:07:05;;;;;;;27.33;24.35;;;11.70;99.90;;;;;;5001232;28;20026;-69
2023/05/07 03:09:30;;;;;;;29.05;25.92;;;11.70;99.90;;;;;;5011425;28;20505;-69
2023/05/07 03:11:57;;;;;;;29.30;26.25;;;11.70;99.90;;;;;;5011115;28;20053;-68
2023/05/07 03:14:22;;;;;;;28.73;25.67;;;11.70;99.90;;;;;;5009767;28;20076;-69
2023/05/07 03:16:49;;;;;;;29.92;26.75;;;11.70;99.90;;;;;;5009785;28;20069;-68
2023/05/07 03:19:15;;;;;;;33.17;28.58;;;11.60;99.90;;;;;;5000952;28;20046;-69
2023/05/07 03:21:41;;;;;;;31.45;27.42;;;11.60;99.90;;;;;;5010841;28;20529;-69
2023/05/07 03:24:07;;;;;;;30.70;27.38;;;11.70;99.90;;;;;;5009528;28;20116;-69
2023/05/07 03:26:33;;;;;;;31.02;27.70;;;11.60;99.90;;;;;;5009741;28;20069;-68
2023/05/07 03:28:58;;;;;;;34.72;29.42;;;11.60;99.90;;;;;;5009501;28;20100;-68
2023/05/07 03:31:24;;;;;;;32.35;28.23;;;11.60;99.90;;;;;;5009656;28;20033;-69
2023/05/07 03:33:55;;;;;;;34.50;29.25;;;11.60;99.90;;;;;;5008555;28;20111;-69
2023/05/07 03:36:21;;;;;;;32.88;29.27;;;11.60;99.90;;;;;;5010764;28;20045;-69
2023/05/07 03:38:48;;;;;;;34.85;30.95;;;11.60;99.90;;;;;;5010638;28;20120;-68
2023/05/07 03:41:13;;;;;;;35.67;30.63;;;11.50;99.90;;;;;;5010024;28;20116;-68
2023/05/07 03:43:39;;;;;;;34.92;30.42;;;11.50;99.90;;;;;;5008151;28;20124;-68
2023/05/07 03:46:05;;;;;;;39.50;30.90;;;11.50;99.90;;;;;;5010585;28;20088;-69
2023/05/07 03:48:31;;;;;;;36.97;32.05;;;11.50;99.90;;;;;;5008854;28;20207;-68
2023/05/07 03:50:58;;;;;;;35.90;30.70;;;11.50;99.90;;;;;;5010839;28;20061;-69
2023/05/07 03:53:23;;;;;;;36.58;31.40;;;11.40;99.90;;;;;;5024615;28;20081;-69
2023/05/07 03:55:49;;;;;;;38.00;32.28;;;11.40;99.90;;;;;;5026641;28;20069;-69
2023/05/07 03:58:15;;;;;;;38.63;32.67;;;11.40;99.90;;;;;;5010005;28;20046;-68
2023/05/07 04:00:41;;;;;;;36.05;31.90;;;11.40;99.90;;;;;;5008699;28;20041;-68
2023/05/07 04:03:07;;;;;;;39.17;32.55;;;11.40;99.90;;;;;;5009051;28;20461;-68
2023/05/07 04:05:33;;;;;;;38.47;32.70;;;11.40;99.90;;;;;;5009342;28;20038;-68
2023/05/07 04:07:59;;;;;;;38.63;32.42;;;11.40;99.90;;;;;;5009592;28;20049;-69
2023/05/07 04:10:25;;;;;;;39.72;34.17;;;11.40;99.90;;;;;;5007497;28;20042;-69
2023/05/07 04:12:51;;;;;;;40.05;31.17;;;11.40;99.90;;;;;;5009025;28;20102;-70
2023/05/07 04:15:17;;;;;;;38.83;32.42;;;11.40;99.90;;;;;;5007199;28;20041;-69
2023/05/07 04:17:42;;;;;;;36.88;32.63;;;11.40;99.90;;;;;;4989199;28;20362;-69
2023/05/07 04:20:14;;;;;;;38.53;31.33;;;11.40;99.90;;;;;;5009852;28;20092;-69
2023/05/07 04:22:40;;;;;;;37.33;32.55;;;11.40;99.90;;;;;;5024985;28;20049;-69
2023/05/07 04:25:06;;;;;;;38.97;33.10;;;11.40;99.90;;;;;;5009153;28;20042;-68
2023/05/07 04:27:32;;;;;;;39.53;32.35;;;11.40;99.90;;;;;;5008104;28;20076;-69
2023/05/07 04:29:58;;;;;;;42.47;32.92;;;11.30;99.90;;;;;;5009058;28;20041;-69
2023/05/07 04:32:24;;;;;;;40.60;33.25;;;11.30;99.90;;;;;;5006307;28;20061;-69
2023/05/07 04:34:50;;;;;;;39.22;32.97;;;11.40;99.90;;;;;;5007222;28;20285;-68
2023/05/07 04:37:16;;;;;;;38.88;32.65;;;11.40;99.90;;;;;;5009894;28;20525;-69
2023/05/07 04:39:42;;;;;;;39.42;34.17;;;11.40;99.90;;;;;;5007514;28;20038;-69
2023/05/07 04:42:08;;;;;;;38.03;31.15;;;11.40;99.90;;;;;;5008618;28;20254;-68
2023/05/07 04:44:36;;;;;;;36.10;31.58;;;11.40;99.90;;;;;;5009846;28;20050;-69
2023/05/07 04:47:02;;;;;;;36.60;31.48;;;11.50;99.90;;;;;;5006312;28;20041;-69
2023/05/07 04:49:28;;;;;;;35.80;31.80;;;11.40;99.90;;;;;;4991386;28;20041;-69
2023/05/07 04:51:53;;;;;;;37.63;32.20;;;11.50;99.90;;;;;;5007689;28;20090;-69
2023/05/07 04:54:19;;;;;;;35.47;30.58;;;11.50;99.90;;;;;;5007866;28;20041;-69
2023/05/07 04:56:45;;;;;;;36.65;32.58;;;11.50;99.90;;;;;;5008288;28;20745;-69
2023/05/07 04:59:10;;;;;;;35.15;30.73;;;11.50;99.90;;;;;;5008159;28;20411;-69
2023/05/07 05:01:36;;;;;;;36.78;29.80;;;11.50;99.90;;;;;;5008549;28;20108;-70
2023/05/07 05:04:02;;;;;;;35.00;29.95;;;11.50;99.90;;;;;;5009426;28;20496;-70
2023/05/07 05:06:28;;;;;;;33.95;29.23;;;11.40;99.90;;;;;;5020751;28;20031;-70
2023/05/07 05:08:54;;;;;;;33.10;28.35;;;11.50;99.90;;;;;;5024610;28;20485;-69
2023/05/07 05:11:20;;;;;;;34.28;30.55;;;11.50;99.90;;;;;;4991214;28;20387;-69
2023/05/07 05:13:48;;;;;;;33.65;29.95;;;11.40;99.90;;;;;;5009033;28;20486;-69
2023/05/07 05:16:14;;;;;;;32.08;28.50;;;11.40;99.90;;;;;;5008947;28;20050;-68
2023/05/07 05:18:40;;;;;;;30.98;27.80;;;11.40;99.90;;;;;;5004319;28;20042;-69
2023/05/07 05:21:06;;;;;;;33.10;29.08;;;11.40;99.90;;;;;;4992044;28;20043;-69
2023/05/07 05:23:31;;;;;;;33.92;27.75;;;11.40;99.90;;;;;;5009651;28;20494;-69
2023/05/07 05:25:58;;;;;;;32.00;28.42;;;11.40;99.90;;;;;;5010187;28;20046;-70
2023/05/07 05:28:24;;;;;;;30.58;27.00;;;11.40;99.90;;;;;;5009487;28;20132;-70
2023/05/07 05:30:50;;;;;;;30.27;26.58;;;11.50;99.90;;;;;;5010019;28;20145;-69
2023/05/07 05:33:16;;;;;;;31.20;27.67;;;11.50;99.90;;;;;;5004322;28;20054;-69
2023/05/07 05:35:42;;;;;;;29.73;26.40;;;11.50;99.90;;;;;;5023606;28;20050;-69
2023/05/07 05:38:08;;;;;;;28.17;25.10;;;11.60;99.90;;;;;;4992233;28;20045;-69
2023/05/07 05:40:34;;;;;;;29.38;26.33;;;11.60;99.90;;;;;;5009711;28;20033;-69
2023/05/07 05:43:00;;;;;;;29.67;26.40;;;11.60;99.90;;;;;;5009641;28;20095;-68
2023/05/07 05:45:25;;;;;;;28.33;25.05;;;11.70;99.90;;;;;;5010719;28;20050;-69
2023/05/07 05:47:51;;;;;;;27.35;24.58;;;11.70;99.90;;;;;;5012882;28;20041;-70
2023/05/07 05:50:17;;;;;;;27.58;24.65;;;11.70;99.90;;;;;;5008388;28;20053;-69
2023/05/07 05:52:43;;;;;;;27.33;23.85;;;11.70;99.90;;;;;;5010578;28;20038;-69
2023/05/07 05:55:09;;;;;;;27.58;24.58;;;11.80;99.90;;;;;;5011189;28;20045;-69
2023/05/07 05:57:35;;;;;;;27.45;24.60;;;11.80;99.90;;;;;;5010109;28;20057;-69
2023/05/07 06:00:02;;;;;;;28.95;25.75;;;11.80;99.90;;;;;;5009519;28;20042;-69
2023/05/07 06:02:28;;;;;;;27.63;24.83;;;11.90;99.90;;;;;;5010846;28;20104;-70
2023/05/07 06:04:54;;;;;;;27.52;24.70;;;11.80;99.90;;;;;;5008355;28;20041;-69
2023/05/07 06:07:19;;;;;;;27.88;24.90;;;11.80;99.90;;;;;;5009905;28;20060;-69
2023/05/07 06:09:45;;;;;;;28.08;25.08;;;11.90;99.90;;;;;;5009372;28;20037;-69
2023/05/07 06:12:12;;;;;;;29.45;26.48;;;11.90;99.90;;;;;;5009435;28;20140;-69
2023/05/07 06:14:37;;;;;;;28.35;25.27;;;12.00;99.90;;;;;;5008716;28;20092;-69
2023/05/07 06:17:03;;;;;;;26.98;24.25;;;12.00;99.90;;;;;;4987917;28;20046;-69
2023/05/07 06:19:29;;;;;;;28.20;24.90;;;12.00;99.90;;;;;;5008677;28;20049;-69
2023/05/07 06:21:56;;;;;;;29.33;26.20;;;12.00;99.90;;;;;;5009837;28;20116;-69
2023/05/07 06:24:22;;;;;;;27.45;24.48;;;12.00;99.90;;;;;;5024135;28;20454;-69
2023/05/07 06:26:48;;;;;;;28.30;25.25;;;12.00;99.90;;;;;;5007532;28;20029;-69
2023/05/07 06:29:14;;;;;;;28.40;25.55;;;12.00;99.90;;;;;;5010546;28;20092;-70
2023/05/07 06:31:40;;;;;;;30.20;27.10;;;12.00;99.90;;;;;;5013758;28;20553;-69
2023/05/07 06:34:06;;;;;;;30.10;25.80;;;12.00;99.90;;;;;;5010625;28;20120;-70
2023/05/07 06:36:31;;;;;;;30.85;25.70;;;12.00;99.90;;;;;;4993245;28;20045;-70
2023/05/07 06:38:57;;;;;;;30.65;27.38;;;12.10;99.90;;;;;;5012872;28;20042;-69
2023/05/07 06:41:23;;;;;;;29.23;26.20;;;12.10;99.90;;;;;;5012557;28;20034;-70
2023/05/07 06:43:49;;;;;;;30.95;27.50;;;12.10;99.90;;;;;;5012778;28;20074;-69
2023/05/07 06:46:14;;;;;;;29.05;25.90;;;12.10;99.90;;;;;;5011739;28;20054;-70
2023/05/07 06:48:40;;;;;;;31.10;27.02;;;12.20;99.90;;;;;;5010606;28;20042;-70
2023/05/07 06:51:06;;;;;;;29.05;25.95;;;12.20;99.90;;;;;;5012678;28;20444;-70
2023/05/07 06:53:31;;;;;;;29.98;26.85;;;12.30;99.90;;;;;;5013975;28;20053;-70
2023/05/07 06:55:57;;;;;;;30.08;26.90;;;12.30;99.90;;;;;;5010249;28;20442;-70
2023/05/07 06:58:23;;;;;;;30.30;26.30;;;12.50;99.90;;;;;;5011239;28;20046;-69
2023/05/07 07:00:49;;;;;;;28.38;25.27;;;12.60;99.90;;;;;;5024570;28;20103;-70
2023/05/07 07:03:15;;;;;;;29.50;26.30;;;12.70;99.90;;;;;;5009291;28;20148;-70
2023/05/07 07:05:41;;;;;;;29.73;26.55;;;12.70;99.90;;;;;;5011217;28;20520;-70
2023/05/07 07:08:07;;;;;;;29.27;26.13;;;12.70;99.90;;;;;;5026145;28;20486;-71
2023/05/07 07:10:33;;;;;;;29.17;26.05;;;12.80;99.90;;;;;;5010660;28;20045;-70
2023/05/07 07:12:58;;;;;;;30.52;27.23;;;12.90;99.90;;;;;;5010024;28;20510;-69
2023/05/07 07:15:24;;;;;;;30.17;26.90;;;12.80;99.90;;;;;;5008414;28;20113;-68
2023/05/07 07:17:50;;;;;;;30.45;27.15;;;12.90;99.90;;;;;;5002139;28;20348;-69
2023/05/07 07:20:16;;;;;;;30.10;26.95;;;12.90;99.90;;;;;;5027139;28;20042;-69
2023/05/07 07:22:42;;;;;;;31.48;28.13;;;12.90;99.90;;;;;;5011742;28;20442;-70
2023/05/07 07:25:08;;;;;;;32.50;27.85;;;12.90;99.90;;;;;;5010347;28;20099;-68
2023/05/07 07:27:34;;;;;;;29.50;26.48;;;12.90;99.90;;;;;;5006247;28;20100;-68
2023/05/07 07:30:00;;;;;;;29.92;26.73;;;12.90;99.90;;;;;;5010340;28;20046;-69
2023/05/07 07:32:26;;;;;;;31.05;27.73;;;13.00;99.90;;;;;;5009846;28;20399;-69
2023/05/07 07:34:52;;;;;;;30.05;26.65;;;12.90;99.90;;;;;;5009938;28;20050;-71
2023/05/07 07:37:17;;;;;;;31.40;28.00;;;13.00;99.90;;;;;;5025115;28;20228;-70
2023/05/07 07:39:43;;;;;;;34.15;30.45;;;13.00;99.90;;;;;;5011314;28;20121;-71
2023/05/07 07:42:09;;;;;;;32.05;28.73;;;13.00;99.90;;;;;;4991204;28;20042;-71
2023/05/07 07:44:35;;;;;;;30.85;27.75;;;13.10;99.90;;;;;;5006325;28;20038;-71
2023/05/07 07:47:00;;;;;;;32.13;28.20;;;13.20;99.90;;;;;;5006995;28;20054;-71
2023/05/07 07:49:27;;;;;;;31.08;27.77;;;13.30;99.90;;;;;;5009852;28;20069;-71
2023/05/07 07:51:52;;;;;;;34.55;28.60;;;13.40;99.90;;;;;;5028004;28;20509;-71
2023/05/07 07:54:18;;;;;;;31.88;28.40;;;13.40;99.90;;;;;;5023091;28;20034;-71
2023/05/07 07:56:44;;;;;;;33.28;29.92;;;13.50;99.90;;;;;;5009729;28;20083;-71
2023/05/07 07:59:09;;;;;;;30.75;27.13;;;13.50;99.90;;;;;;5009908;28;20204;-71
2023/05/07 08:01:35;;;;;;;31.90;28.48;;;13.60;99.90;;;;;;5010663;28;20041;-71
2023/05/07 08:04:02;;;;;;;31.88;27.65;;;13.70;99.90;;;;;;5008292;28;20107;-71
2023/05/07 08:06:29;;;;;;;29.98;27.02;;;13.70;99.90;;;;;;5010472;28;20182;-72
2023/05/07 08:08:55;;;;;;;31.27;27.98;;;13.90;99.90;;;;;;5007583;28;20065;-71
2023/05/07 08:11:21;;;;;;;29.52;26.60;;;14.10;99.90;;;;;;5008841;28;20042;-72
2023/05/07 08:13:47;;;;;;;31.63;28.35;;;14.20;99.90;;;;;;5006542;28;20065;-71
2023/05/07 08:16:13;;;;;;;31.08;28.05;;;14.20;99.90;;;;;;5009393;28;20564;-71
2023/05/07 08:18:38;;;;;;;30.10;27.05;;;14.40;99.90;;;;;;4992623;28;20042;-71
2023/05/07 08:21:04;;;;;;;32.92;29.42;;;14.50;99.90;;;;;;5010364;28;20042;-72
2023/05/07 08:23:30;;;;;;;29.70;26.55;;;14.50;99.90;;;;;;5009751;28;20049;-72
2023/05/07 08:25:56;;;;;;;31.05;27.58;;;14.40;99.90;;;;;;4999508;28;20057;-72
2023/05/07 08:28:24;;;;;;;30.67;27.48;;;14.50;99.90;;;;;;5009595;28;20405;-72
2023/05/07 08:30:50;;;;;;;29.95;26.95;;;14.50;99.90;;;;;;5006443;28;20565;-71
2023/05/07 08:33:16;;;;;;;30.92;27.73;;;14.50;99.90;;;;;;5009433;28;20066;-71
2023/05/07 08:35:41;;;;;;;30.67;27.58;;;14.50;99.90;;;;;;5014463;28;20045;-72
2023/05/07 08:38:07;;;;;;;30.08;26.90;;;14.50;99.90;;;;;;5009368;28;20115;-72
2023/05/07 08:40:37;;;;;;;31.90;28.55;;;14.60;99.90;;;;;;5007477;28;20061;-73
2023/05/07 08:43:05;;;;;;;30.10;26.95;;;14.80;99.90;;;;;;5022393;28;20038;-71
2023/05/07 08:45:33;;;;;;;30.65;27.33;;;15.20;99.90;;;;;;5006747;28;20387;-71
2023/05/07 08:48:03;;;;;;;29.95;26.83;;;15.40;99.90;;;;;;5007320;28;20100;-72
2023/05/07 08:50:29;;;;;;;30.85;27.48;;;15.40;99.90;;;;;;5007706;28;20049;-72
2023/05/07 08:52:56;;;;;;;29.92;26.80;;;15.40;99.90;;;;;;5007801;28;20568;-72
2023/05/07 08:55:23;;;;;;;29.88;26.75;;;15.50;99.90;;;;;;5006031;28;20153;-70
2023/05/07 08:57:52;;;;;;;28.98;26.08;;;15.60;99.90;;;;;;5023619;28;20462;-72
2023/05/07 09:00:18;;;;;;;29.98;26.95;;;15.50;99.90;;;;;;5004782;28;20076;-73
2023/05/07 09:02:44;;;;;;;29.77;26.77;;;15.60;99.90;;;;;;5007686;28;21993;-72
2023/05/07 09:05:09;;;;;;;29.65;26.75;;;15.80;99.90;;;;;;5007727;28;20470;-72
2023/05/07 09:07:35;;;;;;;29.50;26.48;;;16.10;99.90;;;;;;4990584;28;20029;-72
2023/05/07 09:10:03;;;;;;;29.15;26.33;;;16.30;99.90;;;;;;5005977;28;20144;-71
2023/05/07 09:12:28;;;;;;;28.92;25.92;;;16.50;99.90;;;;;;5021170;28;20485;-72
2023/05/07 09:14:54;;;;;;;26.80;24.02;;;16.70;99.90;;;;;;5005284;28;20091;-72
2023/05/07 09:17:20;;;;;;;29.15;26.15;;;17.00;99.90;;;;;;5005818;28;20045;-73
2023/05/07 09:19:46;;;;;;;27.45;24.65;;;17.30;99.90;;;;;;5002474;28;20045;-73
2023/05/07 09:22:12;;;;;;;29.77;26.58;;;17.50;99.90;;;;;;5004783;28;20040;-72
2023/05/07 09:24:38;;;;;;;27.58;24.88;;;17.40;99.90;;;;;;5006910;28;20034;-72
2023/05/07 09:27:05;;;;;;;27.02;24.42;;;17.50;99.90;;;;;;5007646;28;20414;-72
2023/05/07 09:29:35;;;;;;;26.15;23.65;;;17.50;99.90;;;;;;5006218;28;20053;-69
2023/05/07 09:32:08;;;;;;;27.55;24.75;;;17.40;99.90;;;;;;5004305;28;20041;-69
2023/05/07 09:34:35;;;;;;;27.20;24.58;;;17.50;99.90;;;;;;5004892;28;20065;-69
2023/05/07 09:37:01;;;;;;;25.73;23.23;;;17.40;99.90;;;;;;5005272;28;20073;-73
2023/05/07 09:39:39;;;;;;;25.90;23.38;;;17.40;99.90;;;;;;5005368;28;20422;-72
2023/05/07 09:42:04;;;;;;;25.30;22.90;;;17.70;99.90;;;;;;5004729;28;20038;-74
2023/05/07 09:44:32;;;;;;;25.65;23.25;;;18.00;99.90;;;;;;5003974;28;20448;-71
2023/05/07 09:47:00;;;;;;;26.50;23.90;;;18.00;99.90;;;;;;5004732;28;20065;-68
2023/05/07 09:49:30;;;;;;;24.95;22.63;;;18.10;99.90;;;;;;5003811;28;20080;-69
2023/05/07 09:51:56;;;;;;;24.33;21.92;;;18.10;99.90;;;;;;5002865;28;20490;-69
2023/05/07 09:54:22;;;;;;;24.48;22.10;;;18.20;99.90;;;;;;5006938;28;20081;-68
2023/05/07 09:56:49;;;;;;;26.20;23.67;;;18.30;99.90;;;;;;5021390;28;20041;-71
2023/05/07 09:59:16;;;;;;;25.08;22.77;;;18.50;99.90;;;;;;5007875;28;20065;-71
2023/05/07 10:01:43;;;;;;;22.70;20.60;;;18.90;99.90;;;;;;5006890;28;20088;-73
2023/05/07 10:04:10;;;;;;;22.85;20.52;;;19.20;99.90;;;;;;5005248;28;20081;-72
2023/05/07 10:06:37;;;;;;;22.38;20.30;;;19.20;99.90;;;;;;5009722;28;20042;-72
2023/05/07 10:09:07;;;;;;;23.23;21.10;;;19.20;99.90;;;;;;5013285;28;20383;-73
2023/05/07 10:11:37;;;;;;;22.88;20.73;;;19.10;99.90;;;;;;5011065;28;20049;-73
2023/05/07 10:14:05;;;;;;;23.13;20.80;;;19.00;99.90;;;;;;5011576;28;20050;-72
2023/05/07 10:16:36;;;;;;;23.73;21.42;;;18.80;99.90;;;;;;5010643;28;20045;-72
2023/05/07 10:19:07;;;;;;;24.02;21.75;;;18.60;99.90;;;;;;5010682;28;20045;-73
2023/05/07 10:21:37;;;;;;;21.65;19.65;;;18.50;99.90;;;;;;5011169;28;20041;-70
2023/05/07 10:24:13;;;;;;;21.83;19.83;;;18.50;99.90;;;;;;5011350;28;20124;-73
2023/05/07 10:26:42;;;;;;;22.13;20.13;;;18.50;99.90;;;;;;5009725;28;20371;-71
2023/05/07 10:29:27;;;;;;;22.85;20.58;;;18.60;99.90;;;;;;5011178;28;20133;-72
2023/05/07 10:32:14;;;;;;;23.05;20.85;;;18.50;99.90;;;;;;5010178;28;20057;-70
2023/05/07 10:34:44;;;;;;;22.67;20.42;;;18.20;99.90;;;;;;5009633;28;20069;-71
2023/05/07 10:37:11;;;;;;;22.55;20.45;;;18.20;99.90;;;;;;5011328;28;20520;-69
2023/05/07 10:39:37;;;;;;;22.77;20.65;;;18.10;99.90;;;;;;5011658;28;20046;-69
2023/05/07 10:42:14;;;;;;;24.13;21.88;;;18.20;99.90;;;;;;4988333;28;20038;-69
2023/05/07 10:44:40;;;;;;;22.50;20.40;;;18.30;99.90;;;;;;5012263;28;20478;-68
2023/05/07 10:47:18;;;;;;;22.48;20.38;;;18.40;99.90;;;;;;5009215;28;20030;-68
2023/05/07 10:49:44;;;;;;;21.73;19.80;;;18.50;99.90;;;;;;5012234;28;20469;-68
2023/05/07 10:52:18;;;;;;;21.55;19.65;;;18.60;99.90;;;;;;5010907;28;20089;-68
2023/05/07 10:54:44;;;;;;;24.88;20.38;;;18.70;99.90;;;;;;5011738;28;20045;-68
2023/05/07 10:57:43;;;;;;;21.95;19.95;;;18.70;99.90;;;;;;5012209;28;20034;-68
2023/05/07 11:00:37;;;;;;;21.27;19.17;;;18.90;99.90;;;;;;4984687;28;20062;-67
2023/05/07 11:03:05;;;;;;;19.88;18.05;;;19.10;99.90;;;;;;4990372;28;20443;-68
2023/05/07 11:05:32;;;;;;;19.73;18.00;;;19.30;99.90;;;;;;5012761;28;20529;-68
2023/05/07 11:07:59;;;;;;;21.25;19.15;;;19.40;99.90;;;;;;5008449;28;20088;-67
2023/05/07 11:10:51;;;;;;;20.10;18.30;;;19.30;99.90;;;;;;5012511;28;20045;-68
2023/05/07 11:13:41;;;;;;;20.20;18.35;;;19.20;99.90;;;;;;5009569;28;20100;-73
2023/05/07 11:16:27;;;;;;;20.75;18.77;;;19.20;99.90;;;;;;5007761;28;20045;-73
2023/05/07 11:19:01;;;;;;;20.25;18.35;;;19.30;99.90;;;;;;5006757;28;20188;-74
2023/05/07 11:21:44;;;;;;;20.27;18.47;;;19.50;99.90;;;;;;5008924;28;20310;-76
2023/05/07 11:24:15;;;;;;;19.63;17.73;;;19.60;99.90;;;;;;5002599;28;20293;-76
2023/05/07 11:27:00;;;;;;;18.60;16.83;;;19.70;99.90;;;;;;4995359;28;20494;-75
2023/05/07 11:29:27;;;;;;;19.00;17.30;;;19.90;99.90;;;;;;5011344;28;20050;-75
2023/05/07 11:31:55;;;;;;;19.33;17.48;;;19.90;99.90;;;;;;4989487;28;20041;-75
2023/05/07 11:34:23;;;;;;;18.90;17.20;;;19.90;99.90;;;;;;5023773;28;20061;-76
2023/05/07 11:36:49;;;;;;;19.30;17.60;;;20.00;99.90;;;;;;4995580;28;20085;-74
2023/05/07 11:39:26;;;;;;;19.73;17.92;;;20.10;99.90;;;;;;5026737;28;20057;-76
2023/05/07 11:41:51;;;;;;;19.10;17.30;;;20.10;99.90;;;;;;4995000;28;20069;-75
2023/05/07 11:44:17;;;;;;;20.08;18.25;;;20.20;99.90;;;;;;4995258;28;20076;-76
2023/05/07 11:46:44;;;;;;;18.77;17.15;;;20.20;99.90;;;;;;4995854;28;20042;-77
2023/05/07 11:49:10;;;;;;;19.13;17.27;;;20.40;99.90;;;;;;5009283;28;20042;-73
2023/05/07 11:51:36;;;;;;;19.08;17.38;;;20.70;99.90;;;;;;5010107;28;20075;-74
2023/05/07 11:54:04;;;;;;;18.02;16.33;;;21.20;99.90;;;;;;5010074;28;20612;-75
2023/05/07 11:56:33;;;;;;;18.60;16.90;;;21.50;99.90;;;;;;5000770;28;20175;-76
2023/05/07 11:58:59;;;;;;;18.42;16.67;;;21.50;99.90;;;;;;5008108;28;20482;-75
2023/05/07 12:01:25;;;;;;;18.15;16.45;;;21.40;99.90;;;;;;5007490;28;20038;-73
2023/05/07 12:03:50;;;;;;;16.70;15.20;;;21.40;99.90;;;;;;5008807;28;20041;-69
2023/05/07 12:06:17;;;;;;;16.33;14.65;;;21.60;99.90;;;;;;5009410;28;20159;-69
2023/05/07 12:08:44;;;;;;;16.35;14.95;;;21.70;99.90;;;;;;5007349;28;20044;-70
2023/05/07 12:11:17;;;;;;;16.13;14.75;;;21.80;99.90;;;;;;5009462;28;20074;-70
2023/05/07 12:13:43;;;;;;;15.70;14.40;;;21.80;99.90;;;;;;5011596;28;20048;-70
2023/05/07 12:16:09;;;;;;;16.17;14.77;;;21.80;99.90;;;;;;5008111;28;20038;-70
2023/05/07 12:18:36;;;;;;;16.15;14.65;;;21.70;99.90;;;;;;5007304;28;20045;-70
2023/05/07 12:21:05;;;;;;;15.85;14.23;;;21.80;99.90;;;;;;5004832;28;20158;-70
2023/05/07 12:23:30;;;;;;;16.15;14.65;;;21.90;99.90;;;;;;5009648;28;20041;-71
2023/05/07 12:25:56;;;;;;;16.48;14.88;;;22.10;99.90;;;;;;5009249;28;20038;-70
2023/05/07 12:28:22;;;;;;;17.52;15.93;;;22.20;99.90;;;;;;5008638;28;20054;-69